Aviation Digital Data Service (ADDS)

Output produced by METARs form (0535 UTC 26 February 2017)
found at http://aviationweather.gov/adds/metars/
 
KVQQ 260520Z 2606/2706 31009G15KT P6SM SKC 
     FM261500 01007KT P6SM SKC